Time;durP1;ratioP1;P1;durP2;ratioP2;P2;SDS_P1;SDS_P2;PMS_P1;PMS_P2;Temp;Humidity;BMP_temperature;BMP_pressure;BME280_temperature;BME280_humidity;BME280_pressure;Samples;Min_cycle;Max_cycle;Signal;HPM_P1;HPM_P2
2021/12/12 00:01:36;;;;;;;13.37;7.03;;;5.00;99.90;;;;;;5002633;28;20197;-70
2021/12/12 00:04:13;;;;;;;14.03;6.60;;;5.00;99.90;;;;;;5012222;28;20187;-69
2021/12/12 00:06:45;;;;;;;8.03;6.37;;;5.00;99.90;;;;;;5029227;28;20207;-69
2021/12/12 00:09:25;;;;;;;10.80;6.03;;;5.00;99.90;;;;;;5002693;28;20218;-72
2021/12/12 00:11:53;;;;;;;14.50;7.10;;;4.90;99.90;;;;;;5012614;28;20193;-72
2021/12/12 00:14:25;;;;;;;9.50;6.30;;;4.90;99.90;;;;;;5004093;28;20211;-72
2021/12/12 00:16:54;;;;;;;12.40;6.07;;;4.90;99.90;;;;;;5009117;28;20212;-72
2021/12/12 00:19:24;;;;;;;13.37;6.17;;;5.00;99.90;;;;;;5010302;28;20205;-76
2021/12/12 00:21:55;;;;;;;12.67;6.17;;;5.00;99.90;;;;;;5006596;28;20660;-72
2021/12/12 00:24:24;;;;;;;9.87;5.63;;;4.90;99.90;;;;;;5008353;28;20214;-73
2021/12/12 00:26:53;;;;;;;10.50;6.00;;;5.00;99.90;;;;;;5012457;28;20292;-72
2021/12/12 00:29:23;;;;;;;10.57;5.83;;;5.00;99.90;;;;;;5012019;28;20195;-72
2021/12/12 00:31:56;;;;;;;14.83;6.00;;;4.90;99.90;;;;;;5004398;28;20660;-72
2021/12/12 00:34:25;;;;;;;10.80;6.50;;;4.90;99.90;;;;;;5028719;28;20220;-72
2021/12/12 00:36:52;;;;;;;13.33;6.97;;;4.90;99.90;;;;;;5008595;28;20226;-72
2021/12/12 00:39:23;;;;;;;14.27;6.77;;;4.90;99.90;;;;;;5011696;28;20220;-72
2021/12/12 00:41:55;;;;;;;12.37;6.30;;;4.90;99.90;;;;;;5005630;28;20199;-72
2021/12/12 00:44:23;;;;;;;11.47;5.70;;;4.90;99.90;;;;;;5011212;28;20208;-72
2021/12/12 00:46:52;;;;;;;8.03;5.60;;;4.90;99.90;;;;;;5011839;28;20215;-72
2021/12/12 00:49:19;;;;;;;8.97;4.90;;;4.90;99.90;;;;;;5010147;28;20550;-72
2021/12/12 00:51:50;;;;;;;9.90;5.60;;;4.90;99.90;;;;;;5005200;28;20219;-72
2021/12/12 00:54:43;;;;;;;9.07;5.60;;;4.90;99.90;;;;;;5005304;28;20202;-72
2021/12/12 00:57:13;;;;;;;7.83;4.60;;;4.90;99.90;;;;;;5008861;28;20243;-72
2021/12/12 00:59:44;;;;;;;7.50;5.50;;;4.90;99.90;;;;;;5004463;28;20204;-72
2021/12/12 01:02:18;;;;;;;6.63;4.43;;;4.90;99.90;;;;;;5011104;28;20211;-72
2021/12/12 01:04:48;;;;;;;11.80;4.63;;;5.00;99.90;;;;;;5026547;28;20539;-72
2021/12/12 01:07:21;;;;;;;10.30;5.17;;;5.00;99.90;;;;;;5018193;28;20713;-72
2021/12/12 01:09:51;;;;;;;8.10;4.13;;;5.00;99.90;;;;;;5005398;28;20192;-73
2021/12/12 01:12:32;;;;;;;10.17;5.10;;;5.10;99.90;;;;;;5029494;28;20204;-72
2021/12/12 01:15:05;;;;;;;10.60;4.57;;;5.10;99.90;;;;;;5006405;28;20193;-72
2021/12/12 01:17:38;;;;;;;12.33;4.30;;;5.10;99.90;;;;;;5023678;28;20224;-72
2021/12/12 01:20:12;;;;;;;8.30;4.40;;;5.00;99.90;;;;;;5005092;28;20204;-72
2021/12/12 01:22:42;;;;;;;9.97;4.50;;;5.10;99.90;;;;;;5007971;28;20201;-72
2021/12/12 01:25:19;;;;;;;10.63;4.63;;;5.10;99.90;;;;;;5013298;28;20201;-72
2021/12/12 01:27:47;;;;;;;9.47;4.40;;;5.10;99.90;;;;;;5010462;28;20227;-72
2021/12/12 01:30:20;;;;;;;9.00;4.50;;;5.10;99.90;;;;;;5010398;28;20222;-72
2021/12/12 01:32:48;;;;;;;11.27;4.97;;;5.10;99.90;;;;;;5018879;28;20208;-73
2021/12/12 01:35:19;;;;;;;7.40;4.17;;;5.10;99.90;;;;;;5008439;28;20196;-72
2021/12/12 01:38:51;;;;;;;10.83;4.23;;;5.10;99.90;;;;;;5005984;28;20216;-73
2021/12/12 01:40:41;;;;;;;8.53;4.30;;;5.10;99.90;;;;;;5010897;28;20210;-72
2021/12/12 01:43:16;;;;;;;10.60;3.93;;;5.10;99.90;;;;;;5011310;28;20685;-72
2021/12/12 01:45:46;;;;;;;10.97;4.60;;;5.10;99.90;;;;;;5005384;28;20589;-71
2021/12/12 01:48:19;;;;;;;7.70;4.20;;;5.10;99.90;;;;;;5011696;28;20221;-76
2021/12/12 01:50:50;;;;;;;9.97;4.40;;;5.20;99.90;;;;;;5006815;28;20203;-73
2021/12/12 01:53:24;;;;;;;6.30;4.23;;;5.10;99.90;;;;;;5023851;28;20210;-72
2021/12/12 01:55:54;;;;;;;10.07;4.70;;;5.10;99.90;;;;;;5023686;28;20199;-72
2021/12/12 01:58:25;;;;;;;4.37;3.23;;;5.10;99.90;;;;;;5007158;28;20234;-73
2021/12/12 02:00:56;;;;;;;6.00;3.57;;;5.10;99.90;;;;;;5011002;28;20211;-72
2021/12/12 02:03:27;;;;;;;7.53;4.33;;;5.10;99.90;;;;;;5025666;28;20211;-72
2021/12/12 02:05:56;;;;;;;8.30;3.27;;;5.10;99.90;;;;;;5025459;28;20200;-72
2021/12/12 02:08:27;;;;;;;9.47;3.50;;;5.10;99.90;;;;;;5009810;28;20231;-72
2021/12/12 02:10:58;;;;;;;8.67;3.70;;;5.10;99.90;;;;;;5004653;28;20698;-72
2021/12/12 02:13:28;;;;;;;9.73;3.30;;;5.20;99.90;;;;;;5001742;28;20216;-72
2021/12/12 02:16:01;;;;;;;9.40;4.20;;;5.20;99.90;;;;;;5010515;28;20218;-71
2021/12/12 02:18:35;;;;;;;6.60;3.83;;;5.20;99.90;;;;;;5022484;28;20216;-72
2021/12/12 02:21:10;;;;;;;7.47;3.43;;;5.20;99.90;;;;;;5007915;28;20207;-72
2021/12/12 02:24:00;;;;;;;7.53;4.30;;;5.20;99.90;;;;;;5025423;28;20678;-72
2021/12/12 02:35:22;;;;;;;5.27;3.00;;;5.30;99.90;;;;;;5011057;28;20197;-72
2021/12/12 02:37:55;;;;;;;11.00;3.70;;;5.20;99.90;;;;;;5002531;28;20242;-72
2021/12/12 02:40:28;;;;;;;6.63;3.00;;;5.30;99.90;;;;;;5005608;28;20225;-72
2021/12/12 02:42:58;;;;;;;8.70;3.07;;;5.30;99.90;;;;;;5010428;28;20203;-72
2021/12/12 02:45:28;;;;;;;6.53;2.93;;;5.30;99.90;;;;;;5008086;28;20203;-72
2021/12/12 02:47:59;;;;;;;5.87;3.13;;;5.30;99.90;;;;;;5011778;28;20228;-72
2021/12/12 02:51:08;;;;;;;10.37;3.50;;;5.30;99.90;;;;;;5008473;28;20201;-71
2021/12/12 02:53:40;;;;;;;9.17;3.73;;;5.30;99.90;;;;;;5007007;28;20197;-71
2021/12/12 02:56:14;;;;;;;8.87;3.13;;;5.40;99.90;;;;;;5023371;28;20201;-71
2021/12/12 02:58:43;;;;;;;8.13;3.20;;;5.40;99.90;;;;;;5014204;28;20225;-71
2021/12/12 03:01:14;;;;;;;6.67;3.10;;;5.40;99.90;;;;;;5015113;28;20639;-71
2021/12/12 03:03:44;;;;;;;7.87;2.90;;;5.40;99.90;;;;;;5026950;28;20213;-71
2021/12/12 03:06:16;;;;;;;4.80;2.97;;;5.40;99.90;;;;;;5011513;28;20619;-71
2021/12/12 03:08:49;;;;;;;5.70;2.97;;;5.40;99.90;;;;;;5011113;28;20214;-71
2021/12/12 03:11:19;;;;;;;8.87;3.33;;;5.40;99.90;;;;;;5023716;28;20205;-71
2021/12/12 03:13:47;;;;;;;9.27;3.80;;;5.50;99.90;;;;;;5013694;28;20205;-71
2021/12/12 03:16:14;;;;;;;7.93;3.43;;;5.50;99.90;;;;;;5028949;28;20202;-71
2021/12/12 03:18:44;;;;;;;7.20;3.10;;;5.40;99.90;;;;;;5026427;28;20240;-71
2021/12/12 03:21:16;;;;;;;6.43;3.30;;;5.50;99.90;;;;;;5009096;28;20674;-71
2021/12/12 03:23:48;;;;;;;6.90;3.60;;;5.50;99.90;;;;;;5029121;28;20201;-71
2021/12/12 03:26:16;;;;;;;6.93;3.17;;;5.50;99.90;;;;;;5008538;28;20199;-71
2021/12/12 03:28:48;;;;;;;10.20;4.13;;;5.50;99.90;;;;;;5012021;28;20224;-71
2021/12/12 03:31:20;;;;;;;6.83;3.53;;;5.50;99.90;;;;;;5010362;28;20205;-71
2021/12/12 03:33:48;;;;;;;6.10;3.47;;;5.50;99.90;;;;;;5011747;28;20203;-71
2021/12/12 03:36:17;;;;;;;7.50;3.30;;;5.50;99.90;;;;;;5030891;28;20555;-71
2021/12/12 03:38:48;;;;;;;7.17;3.03;;;5.50;99.90;;;;;;5012009;28;20222;-71
2021/12/12 03:41:18;;;;;;;8.17;4.03;;;5.60;99.90;;;;;;5015019;28;20718;-71
2021/12/12 03:43:50;;;;;;;7.33;3.37;;;5.60;99.90;;;;;;5004148;28;20197;-72
2021/12/12 03:46:18;;;;;;;9.43;3.77;;;5.60;99.90;;;;;;5004918;28;20196;-71
2021/12/12 03:48:46;;;;;;;6.47;3.13;;;5.60;99.90;;;;;;5025198;28;20216;-71
2021/12/12 03:51:17;;;;;;;9.93;3.53;;;5.70;99.90;;;;;;5011435;28;20216;-71
2021/12/12 03:53:44;;;;;;;6.70;3.43;;;5.70;99.90;;;;;;5008983;28;20205;-71
2021/12/12 03:56:13;;;;;;;6.93;3.30;;;5.70;99.90;;;;;;5013956;28;20198;-71
2021/12/12 03:58:43;;;;;;;8.70;3.53;;;5.70;99.90;;;;;;5011607;28;20227;-70
2021/12/12 04:01:17;;;;;;;10.13;3.07;;;5.70;99.90;;;;;;5008876;28;20198;-71
2021/12/12 04:03:45;;;;;;;6.40;3.40;;;5.70;99.90;;;;;;5013836;28;20199;-71
2021/12/12 04:06:16;;;;;;;7.30;3.60;;;5.70;99.90;;;;;;5012018;28;20210;-71
2021/12/12 04:08:45;;;;;;;9.37;3.13;;;5.70;99.90;;;;;;5005684;28;20222;-71
2021/12/12 04:11:16;;;;;;;8.33;3.00;;;5.70;99.90;;;;;;5012365;28;20214;-71
2021/12/12 04:13:46;;;;;;;7.87;3.03;;;5.70;99.90;;;;;;5013472;28;20190;-70
2021/12/12 04:16:15;;;;;;;8.30;2.97;;;5.80;99.90;;;;;;5025021;28;20205;-71
2021/12/12 04:18:43;;;;;;;6.40;2.93;;;5.80;99.90;;;;;;5011073;28;20227;-71
2021/12/12 04:21:12;;;;;;;4.90;2.87;;;5.70;99.90;;;;;;5008460;28;20221;-71
2021/12/12 04:23:40;;;;;;;4.30;3.43;;;5.80;99.90;;;;;;5023162;28;20687;-71
2021/12/12 04:26:12;;;;;;;6.03;3.47;;;5.70;99.90;;;;;;5003737;28;20222;-71
2021/12/12 04:28:39;;;;;;;7.00;2.80;;;5.70;99.90;;;;;;5011042;28;20234;-70
2021/12/12 04:31:07;;;;;;;8.20;4.33;;;5.70;99.90;;;;;;5029473;28;20598;-70
2021/12/12 04:33:36;;;;;;;5.70;2.90;;;5.70;99.90;;;;;;5027664;28;20231;-71
2021/12/12 04:36:04;;;;;;;5.70;3.20;;;5.70;99.90;;;;;;5024198;28;20202;-71
2021/12/12 04:38:32;;;;;;;7.03;3.13;;;5.80;99.90;;;;;;5010188;28;20737;-70
2021/12/12 04:40:59;;;;;;;10.23;3.90;;;5.80;99.90;;;;;;5011654;28;20217;-70
2021/12/12 04:43:27;;;;;;;8.00;3.17;;;5.70;99.90;;;;;;5013010;28;20202;-70
2021/12/12 04:46:06;;;;;;;8.63;3.10;;;5.70;99.90;;;;;;5010381;28;20215;-71
2021/12/12 04:51:38;;;;;;;8.00;3.20;;;5.70;99.90;;;;;;5010876;28;20197;-71
2021/12/12 04:54:12;;;;;;;9.53;3.13;;;5.70;99.90;;;;;;5006810;28;20218;-70
2021/12/12 04:56:56;;;;;;;6.87;2.97;;;5.70;99.90;;;;;;5004881;28;20199;-70
2021/12/12 04:59:26;;;;;;;7.20;3.17;;;5.70;99.90;;;;;;5022025;28;20213;-71
2021/12/12 05:02:00;;;;;;;8.07;2.73;;;5.60;99.90;;;;;;5009226;28;20203;-71
2021/12/12 05:04:34;;;;;;;10.13;3.20;;;5.70;99.90;;;;;;5012836;28;20202;-71
2021/12/12 05:07:09;;;;;;;6.00;3.83;;;5.70;99.90;;;;;;5005120;28;20217;-70
2021/12/12 05:09:43;;;;;;;9.00;3.17;;;5.70;99.90;;;;;;5025171;28;20676;-71
2021/12/12 05:12:17;;;;;;;7.80;3.20;;;5.70;99.90;;;;;;5026049;28;20209;-71
2021/12/12 05:14:52;;;;;;;6.70;3.27;;;5.70;99.90;;;;;;5017036;28;20210;-70
2021/12/12 05:17:24;;;;;;;5.97;3.33;;;5.70;99.90;;;;;;5010636;28;20249;-71
2021/12/12 05:19:57;;;;;;;9.00;3.83;;;5.80;99.90;;;;;;5005118;28;20215;-70
2021/12/12 05:22:32;;;;;;;9.70;3.60;;;5.80;99.90;;;;;;5012531;28;20197;-71
2021/12/12 05:25:02;;;;;;;9.17;3.77;;;5.70;99.90;;;;;;5010558;28;20198;-70
2021/12/12 05:27:32;;;;;;;8.23;3.20;;;5.60;99.90;;;;;;5025113;28;20232;-71
2021/12/12 05:30:04;;;;;;;6.07;3.20;;;5.60;99.90;;;;;;5010869;28;20202;-70
2021/12/12 05:32:33;;;;;;;10.00;4.17;;;5.60;99.90;;;;;;5008531;28;20691;-71
2021/12/12 05:35:04;;;;;;;7.73;3.30;;;5.60;99.90;;;;;;5008208;28;20678;-71
2021/12/12 05:37:31;;;;;;;8.43;3.67;;;5.50;99.90;;;;;;5007779;28;20221;-70
2021/12/12 05:40:02;;;;;;;7.50;3.53;;;5.50;99.90;;;;;;5022044;28;20236;-70
2021/12/12 05:42:30;;;;;;;8.37;4.10;;;5.40;99.90;;;;;;5010985;28;20209;-70
2021/12/12 05:45:00;;;;;;;9.10;4.43;;;5.40;99.90;;;;;;5009378;28;20201;-70
2021/12/12 05:47:28;;;;;;;7.97;3.83;;;5.40;99.90;;;;;;5010553;28;20218;-71
2021/12/12 05:49:57;;;;;;;9.03;4.40;;;5.30;99.90;;;;;;5010865;28;20209;-70
2021/12/12 05:52:26;;;;;;;9.13;3.97;;;5.30;99.90;;;;;;5024996;28;20204;-70
2021/12/12 05:54:56;;;;;;;4.97;3.80;;;5.30;99.90;;;;;;5010991;28;20192;-71
2021/12/12 05:57:27;;;;;;;10.53;4.30;;;5.30;99.90;;;;;;5017043;28;20221;-70
2021/12/12 05:59:56;;;;;;;8.37;4.60;;;5.30;99.90;;;;;;5008961;28;20220;-71
2021/12/12 06:02:26;;;;;;;6.50;3.37;;;5.30;99.90;;;;;;5009529;28;20218;-71
2021/12/12 06:04:55;;;;;;;10.67;4.57;;;5.30;99.90;;;;;;5010337;28;20204;-70
2021/12/12 06:07:23;;;;;;;7.67;4.33;;;5.30;99.90;;;;;;5002647;28;20228;-70
2021/12/12 06:09:53;;;;;;;11.60;4.57;;;5.30;99.90;;;;;;5027780;28;20215;-70
2021/12/12 06:12:21;;;;;;;9.90;4.27;;;5.30;99.90;;;;;;5007888;28;20189;-70
2021/12/12 06:14:50;;;;;;;8.00;3.63;;;5.30;99.90;;;;;;5007859;28;22015;-70
2021/12/12 06:17:18;;;;;;;7.70;3.97;;;5.30;99.90;;;;;;5007749;28;20230;-70
2021/12/12 06:19:46;;;;;;;7.47;4.33;;;5.30;99.90;;;;;;5011413;28;20587;-71
2021/12/12 06:22:15;;;;;;;8.33;4.17;;;5.30;99.90;;;;;;5028583;28;20697;-70
2021/12/12 06:24:43;;;;;;;7.83;4.23;;;5.30;99.90;;;;;;5015634;28;20205;-70
2021/12/12 06:27:15;;;;;;;8.63;4.20;;;5.40;99.90;;;;;;5028822;28;20222;-71
2021/12/12 06:29:45;;;;;;;6.83;4.00;;;5.40;99.90;;;;;;5030336;28;20202;-70
2021/12/12 06:32:13;;;;;;;7.20;4.57;;;5.40;99.90;;;;;;5006863;28;20206;-70
2021/12/12 06:34:41;;;;;;;10.17;4.07;;;5.40;99.90;;;;;;5030052;28;20208;-70
2021/12/12 06:37:09;;;;;;;9.03;4.13;;;5.40;99.90;;;;;;5005444;28;20216;-72
2021/12/12 06:39:37;;;;;;;9.87;4.53;;;5.40;99.90;;;;;;5002641;28;20202;-72
2021/12/12 06:42:07;;;;;;;6.93;4.20;;;5.40;99.90;;;;;;5008660;28;20219;-71
2021/12/12 06:44:39;;;;;;;6.40;4.10;;;5.50;99.90;;;;;;5017874;28;20549;-71
2021/12/12 06:47:08;;;;;;;6.40;4.37;;;5.40;99.90;;;;;;5027806;28;20240;-70
2021/12/12 06:49:36;;;;;;;6.43;3.70;;;5.40;99.90;;;;;;5020441;28;20213;-71
2021/12/12 06:52:07;;;;;;;7.27;4.37;;;5.40;99.90;;;;;;5003207;28;20562;-70
2021/12/12 06:54:34;;;;;;;4.97;3.90;;;5.50;99.90;;;;;;5008800;28;20196;-70
2021/12/12 06:57:07;;;;;;;6.40;4.87;;;5.40;99.90;;;;;;5011537;28;20237;-71
2021/12/12 06:59:37;;;;;;;7.00;4.33;;;5.40;99.90;;;;;;5028274;28;20213;-72
2021/12/12 07:02:49;;;;;;;6.87;4.00;;;5.50;99.90;;;;;;5009612;28;20223;-72
2021/12/12 07:05:23;;;;;;;7.77;4.20;;;5.50;99.90;;;;;;5010736;28;20219;-72
2021/12/12 07:07:52;;;;;;;7.07;3.87;;;5.60;99.90;;;;;;5015279;28;20215;-72
2021/12/12 07:10:22;;;;;;;6.47;4.10;;;5.60;99.90;;;;;;5022678;28;20198;-73
2021/12/12 07:12:55;;;;;;;5.60;3.57;;;5.60;99.90;;;;;;5024003;28;20212;-73
2021/12/12 07:15:25;;;;;;;4.90;3.40;;;5.70;99.90;;;;;;5008890;28;20383;-73
2021/12/12 07:17:54;;;;;;;5.50;3.77;;;5.80;99.90;;;;;;5012453;28;20220;-73
2021/12/12 07:20:24;;;;;;;3.87;3.10;;;5.70;99.90;;;;;;5025671;28;20211;-73
2021/12/12 07:22:52;;;;;;;6.50;3.27;;;5.80;99.90;;;;;;5000690;28;20645;-73
2021/12/12 07:25:21;;;;;;;4.17;3.20;;;5.80;99.90;;;;;;5007580;28;20207;-73
2021/12/12 07:27:51;;;;;;;3.87;3.20;;;5.90;99.90;;;;;;5007332;28;20217;-72
2021/12/12 07:30:20;;;;;;;4.20;3.37;;;5.80;99.90;;;;;;5001599;28;20197;-73
2021/12/12 07:32:48;;;;;;;6.23;3.80;;;5.80;99.90;;;;;;5023476;28;20190;-73
2021/12/12 07:35:16;;;;;;;2.90;2.57;;;5.90;99.90;;;;;;5023376;28;20712;-72
2021/12/12 07:37:46;;;;;;;4.17;3.20;;;5.90;99.90;;;;;;5028142;28;20675;-72
2021/12/12 07:40:13;;;;;;;4.63;2.70;;;5.90;99.90;;;;;;5012918;28;20213;-72
2021/12/12 07:42:45;;;;;;;3.33;2.43;;;5.90;99.90;;;;;;5011978;28;20236;-72
2021/12/12 07:45:14;;;;;;;2.57;2.37;;;6.00;99.90;;;;;;5028031;28;20754;-73
2021/12/12 07:47:42;;;;;;;3.63;2.70;;;6.10;99.90;;;;;;5020156;28;20223;-72
2021/12/12 07:50:12;;;;;;;4.33;3.57;;;6.10;99.90;;;;;;5015640;28;20206;-73
2021/12/12 07:52:44;;;;;;;4.17;3.00;;;6.10;99.90;;;;;;4993620;28;20196;-72
2021/12/12 07:55:15;;;;;;;5.07;4.23;;;6.00;99.90;;;;;;5010685;28;20201;-72
2021/12/12 07:57:45;;;;;;;3.50;2.60;;;6.10;99.90;;;;;;5019711;28;20213;-73
2021/12/12 08:00:17;;;;;;;3.47;2.70;;;6.10;99.90;;;;;;5036333;28;20216;-72
2021/12/12 08:02:47;;;;;;;3.80;2.70;;;6.10;99.90;;;;;;5005898;28;20579;-73
2021/12/12 08:05:20;;;;;;;4.23;3.10;;;6.10;99.90;;;;;;5009664;28;20214;-73
2021/12/12 08:07:47;;;;;;;3.80;3.00;;;6.20;99.90;;;;;;5030001;28;20703;-73
2021/12/12 08:10:18;;;;;;;3.13;2.80;;;6.20;99.90;;;;;;5032897;28;20217;-73
2021/12/12 08:12:46;;;;;;;3.60;2.53;;;6.20;99.90;;;;;;5012036;28;20265;-73
2021/12/12 08:15:13;;;;;;;3.87;3.40;;;6.20;99.90;;;;;;5023099;28;20217;-73
2021/12/12 08:17:42;;;;;;;3.83;3.10;;;6.20;99.90;;;;;;5011847;28;20214;-73
2021/12/12 08:20:11;;;;;;;3.90;3.07;;;6.20;99.90;;;;;;5016952;28;20199;-72
2021/12/12 08:22:39;;;;;;;3.33;3.00;;;6.20;99.90;;;;;;5011822;28;20217;-73
2021/12/12 08:25:27;;;;;;;5.20;2.73;;;6.20;99.90;;;;;;5007429;28;20194;-72
2021/12/12 08:27:58;;;;;;;3.47;2.90;;;6.20;99.90;;;;;;5013842;28;20225;-73
2021/12/12 08:30:26;;;;;;;4.80;3.57;;;6.30;99.90;;;;;;5012699;28;20191;-73
2021/12/12 08:32:53;;;;;;;3.93;2.90;;;6.30;99.90;;;;;;5006406;28;20192;-72
2021/12/12 08:35:24;;;;;;;3.07;2.80;;;6.20;99.90;;;;;;5016389;28;20201;-73
2021/12/12 08:37:52;;;;;;;3.03;2.70;;;6.20;99.90;;;;;;5010794;28;20220;-73
2021/12/12 08:40:22;;;;;;;3.60;3.30;;;6.20;99.90;;;;;;5011027;28;20222;-72
2021/12/12 08:42:53;;;;;;;3.73;3.30;;;6.30;99.90;;;;;;5027820;28;20210;-73
2021/12/12 08:45:24;;;;;;;4.07;3.10;;;6.30;99.90;;;;;;5014325;28;20216;-72
2021/12/12 08:47:52;;;;;;;4.73;3.57;;;6.30;99.90;;;;;;5026213;28;20227;-72
2021/12/12 08:50:24;;;;;;;3.57;3.27;;;6.40;99.90;;;;;;5026227;28;20225;-73
2021/12/12 08:52:53;;;;;;;3.73;3.40;;;6.30;99.90;;;;;;4996518;28;20198;-72
2021/12/12 08:55:31;;;;;;;3.50;3.13;;;6.40;99.90;;;;;;5011692;28;20214;-72
2021/12/12 08:58:14;;;;;;;3.97;3.10;;;6.40;99.90;;;;;;5020011;28;20697;-72
2021/12/12 09:00:47;;;;;;;3.77;3.07;;;6.40;99.90;;;;;;5010682;28;20222;-72
2021/12/12 09:03:18;;;;;;;6.67;3.27;;;6.50;99.90;;;;;;5012046;28;20238;-73
2021/12/12 09:05:46;;;;;;;5.57;3.37;;;6.50;99.90;;;;;;5022010;28;20202;-72
2021/12/12 09:08:19;;;;;;;3.23;2.93;;;6.50;99.90;;;;;;5026978;28;20222;-72
2021/12/12 09:10:51;;;;;;;3.43;2.70;;;6.50;99.90;;;;;;5022422;28;20649;-72
2021/12/12 09:13:24;;;;;;;4.13;3.27;;;6.50;99.90;;;;;;5013254;28;20209;-72
2021/12/12 09:15:58;;;;;;;6.93;4.00;;;6.50;99.90;;;;;;5027357;28;20205;-73
2021/12/12 09:18:34;;;;;;;3.80;3.50;;;6.50;99.90;;;;;;5026860;28;20226;-72
2021/12/12 09:21:09;;;;;;;3.60;3.30;;;6.50;99.90;;;;;;5013716;28;20202;-72
2021/12/12 09:23:43;;;;;;;5.17;4.10;;;6.50;99.90;;;;;;5006312;28;20207;-72
2021/12/12 09:26:14;;;;;;;4.70;4.30;;;6.50;99.90;;;;;;5007230;28;20562;-73
2021/12/12 09:28:49;;;;;;;4.47;4.07;;;6.50;99.90;;;;;;5004433;28;20223;-73
2021/12/12 09:31:22;;;;;;;5.20;4.70;;;6.60;99.90;;;;;;5010710;28;20198;-72
2021/12/12 09:33:53;;;;;;;5.80;5.10;;;6.60;99.90;;;;;;5007863;28;20683;-72
2021/12/12 09:36:30;;;;;;;5.10;4.13;;;6.60;99.90;;;;;;5011971;28;20586;-72
2021/12/12 09:39:02;;;;;;;4.73;4.20;;;6.60;99.90;;;;;;5026672;28;20225;-72
2021/12/12 09:41:46;;;;;;;4.60;3.87;;;6.60;99.90;;;;;;5010705;28;20202;-72
2021/12/12 09:44:36;;;;;;;4.63;4.23;;;6.60;99.90;;;;;;5026741;28;20222;-73
2021/12/12 09:47:28;;;;;;;6.13;4.40;;;6.70;99.90;;;;;;5022776;28;20733;-72
2021/12/12 09:53:30;;;;;;;4.83;4.37;;;6.70;99.90;;;;;;5025057;28;20683;-72
2021/12/12 09:56:04;;;;;;;5.37;4.97;;;6.70;99.90;;;;;;5021418;28;20203;-72
2021/12/12 09:58:41;;;;;;;5.63;4.77;;;6.60;99.90;;;;;;5009061;28;20219;-72
2021/12/12 10:01:14;;;;;;;5.60;5.07;;;6.70;99.90;;;;;;5023279;28;20225;-73
2021/12/12 10:04:08;;;;;;;8.13;5.83;;;6.80;99.90;;;;;;5004359;28;20211;-74
2021/12/12 10:06:49;;;;;;;6.63;6.00;;;6.80;99.90;;;;;;5009547;28;20198;-73
2021/12/12 10:09:42;;;;;;;6.83;5.70;;;6.80;99.90;;;;;;5009928;28;20194;-73
2021/12/12 10:12:14;;;;;;;7.20;6.00;;;6.80;99.90;;;;;;5011593;28;20183;-72
2021/12/12 10:14:46;;;;;;;7.53;6.60;;;6.80;99.90;;;;;;5017997;28;20211;-73
2021/12/12 10:17:30;;;;;;;7.90;7.20;;;6.80;99.90;;;;;;5008234;28;20217;-73
2021/12/12 10:20:13;;;;;;;8.10;7.03;;;6.90;99.90;;;;;;5008876;28;20221;-73
2021/12/12 10:23:07;;;;;;;8.60;7.20;;;6.90;99.90;;;;;;5009925;28;20227;-73
2021/12/12 10:25:47;;;;;;;9.17;8.03;;;6.80;99.90;;;;;;5024496;28;20201;-73
2021/12/12 10:28:20;;;;;;;9.30;8.07;;;6.90;99.90;;;;;;5006217;28;20227;-73
2021/12/12 10:30:57;;;;;;;10.63;9.00;;;6.90;99.90;;;;;;5014017;28;20204;-73
2021/12/12 10:33:32;;;;;;;8.97;7.87;;;6.90;99.90;;;;;;5007379;28;20198;-73
2021/12/12 10:36:05;;;;;;;10.67;8.83;;;6.90;99.90;;;;;;5025639;28;20206;-73
2021/12/12 10:38:40;;;;;;;10.67;9.10;;;6.90;99.90;;;;;;5003735;28;20219;-72
2021/12/12 10:41:12;;;;;;;10.97;8.97;;;7.00;99.90;;;;;;5007418;28;20684;-72
2021/12/12 10:44:01;;;;;;;9.90;8.83;;;7.00;99.90;;;;;;5010274;28;20207;-73
2021/12/12 10:46:38;;;;;;;8.93;8.03;;;6.90;99.90;;;;;;5008067;28;20205;-73
2021/12/12 10:49:15;;;;;;;12.97;10.13;;;7.00;99.90;;;;;;5018093;28;20203;-72
2021/12/12 10:51:48;;;;;;;12.57;9.53;;;7.00;99.90;;;;;;5009479;28;20210;-72
2021/12/12 10:54:22;;;;;;;14.33;9.40;;;7.00;99.90;;;;;;5008350;28;20210;-73
2021/12/12 10:57:00;;;;;;;12.70;9.53;;;7.00;99.90;;;;;;4997999;28;20214;-72
2021/12/12 10:59:33;;;;;;;12.27;9.97;;;7.10;99.90;;;;;;5007208;28;20199;-72
2021/12/12 11:02:06;;;;;;;12.00;9.47;;;7.10;99.90;;;;;;5007648;28;20545;-73
2021/12/12 11:04:40;;;;;;;11.07;8.60;;;7.10;99.90;;;;;;5025025;28;20227;-73
2021/12/12 11:07:13;;;;;;;12.27;8.50;;;7.10;99.90;;;;;;5010929;28;20219;-72
2021/12/12 11:09:47;;;;;;;15.57;8.37;;;7.20;99.90;;;;;;5009412;28;20660;-73
2021/12/12 11:12:39;;;;;;;12.13;7.60;;;7.20;99.90;;;;;;5015854;28;20210;-73
2021/12/12 11:15:11;;;;;;;10.20;7.33;;;7.10;99.90;;;;;;5028899;28;20214;-73
2021/12/12 11:17:42;;;;;;;8.60;7.03;;;7.20;99.90;;;;;;5029604;28;20241;-72
2021/12/12 11:20:23;;;;;;;10.47;7.57;;;7.20;99.90;;;;;;5029315;28;20203;-73
2021/12/12 11:22:55;;;;;;;7.30;6.60;;;7.20;99.90;;;;;;5024548;28;20580;-73
2021/12/12 11:25:28;;;;;;;6.97;6.17;;;7.20;99.90;;;;;;5026019;28;20213;-73
2021/12/12 11:27:59;;;;;;;8.00;6.43;;;7.20;99.90;;;;;;5027513;28;20216;-73
2021/12/12 11:30:29;;;;;;;8.40;6.23;;;7.30;99.90;;;;;;5013396;28;20206;-72
2021/12/12 11:33:08;;;;;;;8.53;6.03;;;7.30;99.90;;;;;;5004345;28;20199;-73
2021/12/12 11:35:45;;;;;;;8.67;6.17;;;7.30;99.90;;;;;;5004117;28;20219;-73
2021/12/12 11:38:21;;;;;;;9.70;5.90;;;7.30;99.90;;;;;;5011625;28;20211;-73
2021/12/12 11:40:54;;;;;;;7.17;6.47;;;7.40;99.90;;;;;;5005968;28;20206;-73
2021/12/12 11:43:32;;;;;;;7.57;5.83;;;7.30;99.90;;;;;;5011336;28;20218;-73
2021/12/12 11:46:04;;;;;;;6.70;5.80;;;7.30;99.90;;;;;;5009260;28;20210;-72
2021/12/12 11:48:54;;;;;;;7.60;6.40;;;7.40;99.90;;;;;;5011356;28;20227;-72
2021/12/12 11:51:29;;;;;;;9.33;6.40;;;7.40;99.90;;;;;;5004558;28;20207;-73
2021/12/12 11:54:02;;;;;;;7.73;6.20;;;7.50;99.90;;;;;;5007189;28;20202;-73
2021/12/12 11:56:34;;;;;;;7.17;6.47;;;7.50;99.90;;;;;;5012658;28;20657;-73
2021/12/12 11:59:11;;;;;;;7.77;5.50;;;7.50;99.90;;;;;;5009032;28;20250;-73
2021/12/12 12:01:51;;;;;;;7.37;5.80;;;7.40;99.90;;;;;;5010498;28;20207;-73
2021/12/12 12:04:42;;;;;;;7.97;5.93;;;7.50;99.90;;;;;;5012969;28;20212;-73
2021/12/12 12:07:17;;;;;;;8.00;6.20;;;7.50;99.90;;;;;;5012237;28;20225;-73
2021/12/12 12:10:09;;;;;;;6.47;5.83;;;7.60;99.90;;;;;;5025387;28;20191;-73
2021/12/12 12:12:53;;;;;;;7.50;6.50;;;7.60;99.90;;;;;;5011645;28;20207;-73
2021/12/12 12:15:30;;;;;;;7.50;5.73;;;7.60;99.90;;;;;;5008160;28;20222;-73
2021/12/12 12:18:05;;;;;;;6.87;6.03;;;7.60;99.90;;;;;;5020868;28;20227;-72
2021/12/12 12:20:43;;;;;;;7.27;6.57;;;7.60;99.90;;;;;;5013285;28;20203;-72
2021/12/12 12:23:33;;;;;;;8.50;6.80;;;7.60;99.90;;;;;;5007341;28;20223;-74
2021/12/12 12:28:57;;;;;;;5.83;5.23;;;7.60;99.90;;;;;;5005986;28;20570;-73
2021/12/12 12:32:18;;;;;;;7.03;6.33;;;7.70;99.90;;;;;;5008963;28;20196;-73
2021/12/12 12:38:27;;;;;;;6.40;5.83;;;7.80;99.90;;;;;;5008272;28;20210;-73
2021/12/12 12:41:37;;;;;;;7.57;6.23;;;7.80;99.90;;;;;;5005489;28;20183;-73
2021/12/12 12:44:41;;;;;;;6.43;5.80;;;7.80;99.90;;;;;;4955274;28;20218;-74
2021/12/12 12:48:00;;;;;;;6.10;5.50;;;7.80;99.90;;;;;;5007463;28;20219;-73
2021/12/12 12:50:56;;;;;;;7.20;6.10;;;7.80;99.90;;;;;;5024249;28;20206;-72
2021/12/12 12:54:03;;;;;;;6.60;6.00;;;7.80;99.90;;;;;;5012293;28;20187;-73
2021/12/12 12:57:06;;;;;;;6.40;5.80;;;7.80;99.90;;;;;;5012485;28;20207;-73
2021/12/12 12:59:50;;;;;;;6.30;5.70;;;7.90;99.90;;;;;;5009596;28;20207;-73
2021/12/12 13:02:20;;;;;;;6.53;5.93;;;7.90;99.90;;;;;;5010195;28;20203;-73
2021/12/12 13:05:35;;;;;;;5.57;5.07;;;7.90;99.90;;;;;;5010878;28;20243;-73
2021/12/12 13:08:57;;;;;;;6.27;5.67;;;7.90;99.90;;;;;;4990847;28;20236;-73
2021/12/12 13:11:32;;;;;;;5.87;5.27;;;8.00;99.90;;;;;;5009235;28;20184;-72
2021/12/12 13:14:15;;;;;;;6.00;5.50;;;7.90;99.90;;;;;;5011292;28;20222;-72
2021/12/12 13:16:48;;;;;;;5.80;5.13;;;7.90;99.90;;;;;;5011763;28;20203;-72
2021/12/12 13:19:31;;;;;;;6.70;4.60;;;7.90;99.90;;;;;;5011441;28;20203;-73
2021/12/12 13:22:11;;;;;;;6.17;5.67;;;8.00;99.90;;;;;;5027046;28;20819;-73
2021/12/12 13:24:58;;;;;;;6.43;5.77;;;7.90;99.90;;;;;;5022990;28;20209;-72
2021/12/12 13:27:54;;;;;;;6.63;5.87;;;7.90;99.90;;;;;;5005713;28;20683;-74
2021/12/12 13:30:29;;;;;;;5.80;5.13;;;7.90;99.90;;;;;;5007885;28;20211;-73
2021/12/12 13:33:01;;;;;;;6.60;5.73;;;8.00;99.90;;;;;;5009926;28;20198;-73
2021/12/12 13:36:00;;;;;;;6.63;6.03;;;8.00;99.90;;;;;;5019871;28;20195;-72
2021/12/12 13:38:46;;;;;;;6.77;5.77;;;8.00;99.90;;;;;;5017505;28;20218;-72
2021/12/12 13:41:19;;;;;;;7.40;6.57;;;8.00;99.90;;;;;;5001514;28;20213;-72
2021/12/12 13:44:24;;;;;;;7.10;6.40;;;8.00;99.90;;;;;;5010869;28;20204;-73
2021/12/12 13:47:03;;;;;;;7.57;6.77;;;8.00;99.90;;;;;;5020716;28;20206;-72
2021/12/12 13:49:36;;;;;;;7.57;6.87;;;8.00;99.90;;;;;;5008475;28;20203;-73
2021/12/12 13:52:10;;;;;;;6.33;5.73;;;8.00;99.90;;;;;;5011747;28;20654;-72
2021/12/12 13:54:50;;;;;;;7.00;6.30;;;8.10;99.90;;;;;;5009556;28;20188;-72